SDM6880 UHBB-UNKL
Flight info
| Callsign | SDM6880 |
|---|---|
| Flight time | 3h 26m |
| Altitude | 34000 |
| Route | RUNET2Y RUNET G494 NINON G229 GU/K0870F360 G363 NUKSI A824 LURIN B151 BEGTA W176 TISBU A311 LALOM LALOM2S |
| Aircraft | B738/M-SDE2E3FGHIRWXY/LB1 |
Departure
| Time | 2026-04-24 11:43 |
|---|---|
| Airport | Ignatyevo Airport (UHBB) |
Arrival
| Time | 2026-04-24 15:10 |
|---|---|
| Airport | Krasnoyarsk International Airport (UNKL) |
| Time | Latitude | Longitude | Altitude | Speed | Heading |
|---|---|---|---|---|---|
| 2026-04-24 11:14 | 50.42348 | 127.40949 | 656 ft | 0 kts | 259° |
| 2026-04-24 11:38 | 50.42347 | 127.40944 | 656 ft | 2 kts | 259° |
| 2026-04-24 11:38 | 50.42330 | 127.40893 | 656 ft | 9 kts | 214° |
| 2026-04-24 11:38 | 50.42248 | 127.40897 | 657 ft | 16 kts | 167° |
| 2026-04-24 11:39 | 50.42199 | 127.41021 | 656 ft | 17 kts | 83° |
| 2026-04-24 11:39 | 50.42225 | 127.41236 | 656 ft | 22 kts | 78° |
| 2026-04-24 11:39 | 50.42252 | 127.41455 | 657 ft | 19 kts | 76° |
| 2026-04-24 11:39 | 50.42298 | 127.41644 | 659 ft | 19 kts | 38° |
| 2026-04-24 11:40 | 50.42424 | 127.41640 | 659 ft | 19 kts | 348° |
| 2026-04-24 11:40 | 50.42567 | 127.41595 | 657 ft | 22 kts | 350° |
| 2026-04-24 11:40 | 50.42724 | 127.41552 | 656 ft | 24 kts | 341° |
| 2026-04-24 11:40 | 50.42893 | 127.41495 | 656 ft | 25 kts | 348° |
| 2026-04-24 11:41 | 50.43073 | 127.41429 | 656 ft | 27 kts | 349° |
| 2026-04-24 11:41 | 50.43256 | 127.41370 | 656 ft | 26 kts | 352° |
| 2026-04-24 11:41 | 50.43428 | 127.41314 | 657 ft | 24 kts | 348° |
| 2026-04-24 11:41 | 50.43589 | 127.41260 | 660 ft | 23 kts | 348° |
| 2026-04-24 11:42 | 50.43743 | 127.41212 | 659 ft | 22 kts | 349° |
| 2026-04-24 11:42 | 50.43893 | 127.41185 | 658 ft | 22 kts | 17° |
| 2026-04-24 11:42 | 50.43976 | 127.41159 | 659 ft | 7 kts | 224° |
| 2026-04-24 11:42 | 50.43899 | 127.41162 | 658 ft | 29 kts | 168° |
| 2026-04-24 11:43 | 50.43457 | 127.41306 | 657 ft | 99 kts | 168° |
| 2026-04-24 11:43 | 50.42587 | 127.41590 | 659 ft | 155 kts | 168° |
| 2026-04-24 11:43 | 50.41439 | 127.41989 | 945 ft | 180 kts | 168° |
| 2026-04-24 11:43 | 50.40189 | 127.42449 | 1590 ft | 192 kts | 169° |
| 2026-04-24 11:44 | 50.38869 | 127.43196 | 2046 ft | 210 kts | 146° |
| 2026-04-24 11:44 | 50.37875 | 127.44960 | 2396 ft | 232 kts | 118° |
| 2026-04-24 11:44 | 50.37543 | 127.47687 | 2224 ft | 281 kts | 81° |
| 2026-04-24 11:44 | 50.37857 | 127.50666 | 3088 ft | 276 kts | 85° |
| 2026-04-24 11:45 | 50.37943 | 127.53657 | 3999 ft | 274 kts | 95° |
| 2026-04-24 11:45 | 50.37906 | 127.56605 | 5005 ft | 267 kts | 96° |
| 2026-04-24 11:45 | 50.37877 | 127.59468 | 6010 ft | 261 kts | 93° |
| 2026-04-24 11:45 | 50.38075 | 127.62356 | 6778 ft | 269 kts | 83° |
| 2026-04-24 11:46 | 50.38614 | 127.65233 | 7461 ft | 279 kts | 73° |
| 2026-04-24 11:46 | 50.39617 | 127.67906 | 8079 ft | 296 kts | 46° |
| 2026-04-24 11:46 | 50.41376 | 127.69634 | 8824 ft | 301 kts | 26° |
| 2026-04-24 11:46 | 50.43244 | 127.70989 | 9512 ft | 305 kts | 26° |
| 2026-04-24 11:47 | 50.45128 | 127.72649 | 10134 ft | 309 kts | 41° |
| 2026-04-24 11:47 | 50.46719 | 127.75048 | 10393 ft | 327 kts | 51° |
| 2026-04-24 11:47 | 50.48270 | 127.77825 | 10573 ft | 348 kts | 52° |
| 2026-04-24 11:47 | 50.49928 | 127.80756 | 10746 ft | 370 kts | 51° |
| 2026-04-24 11:48 | 50.51716 | 127.83796 | 11018 ft | 386 kts | 50° |
| 2026-04-24 11:48 | 50.53819 | 127.86531 | 11523 ft | 399 kts | 31° |
| 2026-04-24 11:48 | 50.56462 | 127.87953 | 12210 ft | 405 kts | 8° |
| 2026-04-24 11:48 | 50.59274 | 127.87819 | 12849 ft | 408 kts | 346° |
| 2026-04-24 11:49 | 50.61897 | 127.86175 | 13456 ft | 407 kts | 326° |
| 2026-04-24 11:49 | 50.64258 | 127.83695 | 14131 ft | 407 kts | 322° |
| 2026-04-24 11:49 | 50.66589 | 127.81144 | 14772 ft | 409 kts | 322° |
| 2026-04-24 11:49 | 50.68935 | 127.78575 | 15372 ft | 412 kts | 322° |
| 2026-04-24 11:50 | 50.71301 | 127.76009 | 15989 ft | 414 kts | 322° |
| 2026-04-24 11:50 | 50.73687 | 127.73446 | 16572 ft | 416 kts | 322° |
| 2026-04-24 11:50 | 50.76086 | 127.70885 | 17157 ft | 418 kts | 322° |
| 2026-04-24 11:50 | 50.78507 | 127.68305 | 17705 ft | 420 kts | 321° |
| 2026-04-24 11:51 | 50.80930 | 127.65724 | 18248 ft | 422 kts | 321° |
| 2026-04-24 11:51 | 50.83374 | 127.63117 | 18752 ft | 425 kts | 321° |
| 2026-04-24 11:51 | 50.85832 | 127.60488 | 19194 ft | 429 kts | 321° |
| 2026-04-24 11:51 | 50.88408 | 127.58026 | 19609 ft | 438 kts | 332° |
| 2026-04-24 11:52 | 50.91359 | 127.56615 | 20042 ft | 449 kts | 348° |
| 2026-04-24 11:52 | 50.94499 | 127.56484 | 20494 ft | 457 kts | 5° |
| 2026-04-24 11:52 | 50.97645 | 127.57286 | 20982 ft | 459 kts | 8° |
| 2026-04-24 11:52 | 51.00806 | 127.58204 | 21347 ft | 464 kts | 9° |
| 2026-04-24 11:53 | 51.04001 | 127.59136 | 21720 ft | 467 kts | 8° |
| 2026-04-24 11:53 | 51.07248 | 127.60052 | 22108 ft | 470 kts | 8° |
| 2026-04-24 11:53 | 51.10492 | 127.60934 | 22514 ft | 473 kts | 8° |
| 2026-04-24 11:53 | 51.13740 | 127.61798 | 22907 ft | 475 kts | 8° |
| 2026-04-24 11:54 | 51.17012 | 127.62658 | 23281 ft | 477 kts | 8° |
| 2026-04-24 11:54 | 51.20294 | 127.63519 | 23631 ft | 480 kts | 8° |
| 2026-04-24 11:54 | 51.23600 | 127.64387 | 23958 ft | 483 kts | 8° |
| 2026-04-24 11:54 | 51.26878 | 127.65251 | 24268 ft | 485 kts | 8° |
| 2026-04-24 11:55 | 51.30216 | 127.66135 | 24633 ft | 486 kts | 8° |
| 2026-04-24 11:55 | 51.33571 | 127.66877 | 24970 ft | 487 kts | 2° |
| 2026-04-24 11:55 | 51.36959 | 127.67023 | 25258 ft | 488 kts | 358° |
| 2026-04-24 11:55 | 51.40362 | 127.66979 | 25589 ft | 489 kts | 357° |
| 2026-04-24 11:56 | 51.43759 | 127.66893 | 26012 ft | 488 kts | 357° |
| 2026-04-24 11:56 | 51.47151 | 127.66817 | 26448 ft | 486 kts | 357° |
| 2026-04-24 11:56 | 51.50528 | 127.66768 | 26881 ft | 485 kts | 357° |
| 2026-04-24 11:56 | 51.53894 | 127.66745 | 27305 ft | 483 kts | 357° |
| 2026-04-24 11:57 | 51.57253 | 127.66738 | 27712 ft | 482 kts | 357° |
| 2026-04-24 11:57 | 51.60608 | 127.66740 | 28077 ft | 482 kts | 357° |
| 2026-04-24 11:57 | 51.63968 | 127.66745 | 28469 ft | 481 kts | 357° |
| 2026-04-24 11:57 | 51.67307 | 127.66748 | 28848 ft | 480 kts | 357° |
| 2026-04-24 11:58 | 51.69521 | 127.66750 | 29103 ft | 479 kts | 357° |
| 2026-04-24 11:58 | 51.72890 | 127.66750 | 29506 ft | 477 kts | 357° |
| 2026-04-24 11:58 | 51.76203 | 127.66751 | 29887 ft | 476 kts | 357° |
| 2026-04-24 11:58 | 51.79469 | 127.66751 | 30195 ft | 476 kts | 357° |
| 2026-04-24 11:59 | 51.82818 | 127.66751 | 30508 ft | 475 kts | 357° |
| 2026-04-24 11:59 | 51.86126 | 127.66750 | 30850 ft | 474 kts | 357° |
| 2026-04-24 11:59 | 51.89416 | 127.66750 | 31164 ft | 473 kts | 358° |
| 2026-04-24 11:59 | 51.92713 | 127.66750 | 31429 ft | 474 kts | 358° |
| 2026-04-24 12:00 | 51.96010 | 127.66667 | 31693 ft | 472 kts | 352° |
| 2026-04-24 12:00 | 51.99220 | 127.65708 | 31947 ft | 467 kts | 340° |
| 2026-04-24 12:00 | 52.02236 | 127.63812 | 32228 ft | 462 kts | 329° |
| 2026-04-24 12:00 | 52.04956 | 127.61093 | 32393 ft | 459 kts | 320° |
| 2026-04-24 12:01 | 52.07512 | 127.57956 | 32549 ft | 461 kts | 319° |
| 2026-04-24 12:01 | 52.10052 | 127.54767 | 32775 ft | 461 kts | 319° |
| 2026-04-24 12:01 | 52.12593 | 127.51579 | 33022 ft | 461 kts | 319° |
| 2026-04-24 12:01 | 52.15150 | 127.48395 | 33233 ft | 462 kts | 319° |
| 2026-04-24 12:02 | 52.17716 | 127.45226 | 33384 ft | 465 kts | 320° |
| 2026-04-24 12:02 | 52.20300 | 127.42052 | 33580 ft | 465 kts | 320° |
| 2026-04-24 12:02 | 52.22883 | 127.38888 | 33817 ft | 465 kts | 320° |
| 2026-04-24 12:02 | 52.25440 | 127.35752 | 34016 ft | 465 kts | 320° |
| 2026-04-24 12:03 | 52.28064 | 127.32529 | 34154 ft | 467 kts | 320° |
| 2026-04-24 12:03 | 52.30627 | 127.29375 | 34339 ft | 468 kts | 320° |
| 2026-04-24 12:03 | 52.33226 | 127.26172 | 34586 ft | 467 kts | 320° |
| 2026-04-24 12:03 | 52.35820 | 127.22968 | 34746 ft | 468 kts | 320° |
| 2026-04-24 12:04 | 52.38414 | 127.19759 | 34917 ft | 468 kts | 320° |
| 2026-04-24 12:04 | 52.41013 | 127.16541 | 35120 ft | 468 kts | 320° |
| 2026-04-24 12:04 | 52.43607 | 127.13322 | 35301 ft | 468 kts | 320° |
| 2026-04-24 12:04 | 52.46195 | 127.10093 | 35445 ft | 469 kts | 320° |
| 2026-04-24 12:05 | 52.48788 | 127.06839 | 35637 ft | 468 kts | 320° |
| 2026-04-24 12:05 | 52.51367 | 127.03592 | 35817 ft | 468 kts | 320° |
| 2026-04-24 12:05 | 52.56558 | 126.97038 | 35882 ft | 471 kts | 320° |
| 2026-04-24 12:06 | 52.61735 | 126.90489 | 35880 ft | 468 kts | 320° |
| 2026-04-24 12:06 | 52.66885 | 126.83958 | 35875 ft | 466 kts | 320° |
| 2026-04-24 12:07 | 52.72011 | 126.77437 | 35895 ft | 466 kts | 320° |
| 2026-04-24 12:07 | 52.77183 | 126.70834 | 35898 ft | 473 kts | 320° |
| 2026-04-24 12:08 | 52.82412 | 126.64139 | 35909 ft | 478 kts | 320° |
| 2026-04-24 12:08 | 52.87683 | 126.57370 | 35902 ft | 482 kts | 320° |
| 2026-04-24 12:09 | 52.92941 | 126.50600 | 35886 ft | 479 kts | 320° |
| 2026-04-24 12:09 | 52.98156 | 126.43865 | 35888 ft | 471 kts | 320° |
| 2026-04-24 12:10 | 53.03343 | 126.37139 | 35903 ft | 472 kts | 320° |
| 2026-04-24 12:11 | 53.11108 | 126.27030 | 35897 ft | 473 kts | 320° |
| 2026-04-24 12:11 | 53.16290 | 126.20259 | 35908 ft | 473 kts | 320° |
| 2026-04-24 12:12 | 53.21441 | 126.13508 | 35924 ft | 474 kts | 320° |
| 2026-04-24 12:12 | 53.26654 | 126.06711 | 35930 ft | 475 kts | 320° |
| 2026-04-24 12:13 | 53.31844 | 125.99830 | 35919 ft | 477 kts | 319° |
| 2026-04-24 12:13 | 53.37049 | 125.92915 | 35922 ft | 479 kts | 320° |
| 2026-04-24 12:14 | 53.42287 | 125.85965 | 35919 ft | 481 kts | 320° |
| 2026-04-24 12:14 | 53.47017 | 125.78150 | 35925 ft | 475 kts | 303° |
| 2026-04-24 12:15 | 53.50237 | 125.68580 | 35932 ft | 470 kts | 290° |
| 2026-04-24 12:15 | 53.52878 | 125.58598 | 35915 ft | 470 kts | 290° |
| 2026-04-24 12:16 | 53.55549 | 125.48550 | 35924 ft | 471 kts | 290° |
| 2026-04-24 12:16 | 53.58263 | 125.38498 | 35934 ft | 472 kts | 291° |
| 2026-04-24 12:17 | 53.60982 | 125.28430 | 35931 ft | 472 kts | 290° |
| 2026-04-24 12:17 | 53.63685 | 125.18370 | 35923 ft | 470 kts | 290° |
| 2026-04-24 12:18 | 53.66366 | 125.08337 | 35920 ft | 468 kts | 290° |
| 2026-04-24 12:18 | 53.69014 | 124.98391 | 35927 ft | 466 kts | 290° |
| 2026-04-24 12:19 | 53.71658 | 124.88421 | 35931 ft | 464 kts | 290° |
| 2026-04-24 12:19 | 53.74283 | 124.78471 | 35934 ft | 463 kts | 290° |
| 2026-04-24 12:20 | 53.76893 | 124.68536 | 35938 ft | 463 kts | 290° |
| 2026-04-24 12:20 | 53.79499 | 124.58574 | 35935 ft | 463 kts | 290° |
| 2026-04-24 12:21 | 53.82100 | 124.48586 | 35937 ft | 464 kts | 290° |
| 2026-04-24 12:21 | 53.84696 | 124.38575 | 35945 ft | 465 kts | 290° |
| 2026-04-24 12:22 | 53.87294 | 124.28515 | 35937 ft | 467 kts | 290° |
| 2026-04-24 12:22 | 53.89889 | 124.18398 | 35934 ft | 468 kts | 290° |
| 2026-04-24 12:23 | 53.92485 | 124.08240 | 35937 ft | 470 kts | 290° |
| 2026-04-24 12:23 | 53.95078 | 123.98038 | 35950 ft | 471 kts | 290° |
| 2026-04-24 12:24 | 53.97671 | 123.87803 | 35940 ft | 472 kts | 290° |
| 2026-04-24 12:24 | 54.00248 | 123.77582 | 35948 ft | 473 kts | 290° |
| 2026-04-24 12:25 | 54.02827 | 123.67304 | 35947 ft | 473 kts | 289° |
| 2026-04-24 12:25 | 54.05395 | 123.57019 | 35941 ft | 472 kts | 290° |
| 2026-04-24 12:26 | 54.07954 | 123.46725 | 35942 ft | 472 kts | 289° |
| 2026-04-24 12:26 | 54.10501 | 123.36431 | 35942 ft | 470 kts | 289° |
| 2026-04-24 12:27 | 54.13029 | 123.26160 | 35944 ft | 469 kts | 289° |
| 2026-04-24 12:27 | 54.15544 | 123.15898 | 35945 ft | 468 kts | 290° |
| 2026-04-24 12:28 | 54.18045 | 123.05654 | 35949 ft | 467 kts | 290° |
| 2026-04-24 12:28 | 54.20531 | 122.95414 | 35954 ft | 466 kts | 289° |
| 2026-04-24 12:29 | 54.22997 | 122.85189 | 35955 ft | 465 kts | 290° |
| 2026-04-24 12:29 | 54.25439 | 122.75047 | 35960 ft | 464 kts | 289° |
| 2026-04-24 12:30 | 54.27891 | 122.64826 | 35956 ft | 464 kts | 290° |
| 2026-04-24 12:30 | 54.30331 | 122.54582 | 35949 ft | 465 kts | 290° |
| 2026-04-24 12:31 | 54.32766 | 122.44309 | 35957 ft | 466 kts | 289° |
| 2026-04-24 12:31 | 54.35195 | 122.34006 | 35956 ft | 466 kts | 289° |
| 2026-04-24 12:32 | 54.37620 | 122.23684 | 35961 ft | 467 kts | 289° |
| 2026-04-24 12:32 | 54.40036 | 122.13345 | 35951 ft | 467 kts | 289° |
| 2026-04-24 12:33 | 54.42245 | 122.02879 | 35949 ft | 465 kts | 283° |
| 2026-04-24 12:33 | 54.43934 | 121.92236 | 35958 ft | 465 kts | 282° |
| 2026-04-24 12:34 | 54.45577 | 121.81473 | 35973 ft | 465 kts | 282° |
| 2026-04-24 12:34 | 54.47256 | 121.70733 | 35957 ft | 465 kts | 283° |
| 2026-04-24 12:35 | 54.48958 | 121.59999 | 35967 ft | 465 kts | 283° |
| 2026-04-24 12:35 | 54.50657 | 121.49258 | 35953 ft | 465 kts | 283° |
| 2026-04-24 12:36 | 54.52340 | 121.38510 | 35957 ft | 465 kts | 283° |
| 2026-04-24 12:36 | 54.54011 | 121.27787 | 35960 ft | 463 kts | 283° |
| 2026-04-24 12:37 | 54.55669 | 121.17057 | 35968 ft | 463 kts | 283° |
| 2026-04-24 12:37 | 54.57315 | 121.06325 | 35957 ft | 462 kts | 283° |
| 2026-04-24 12:38 | 54.58949 | 120.95636 | 35965 ft | 461 kts | 283° |
| 2026-04-24 12:38 | 54.60294 | 120.86767 | 35960 ft | 460 kts | 283° |
| 2026-04-24 12:39 | 54.63497 | 120.65457 | 35964 ft | 457 kts | 283° |
| 2026-04-24 12:40 | 54.65078 | 120.54817 | 35959 ft | 457 kts | 283° |
| 2026-04-24 12:40 | 54.66645 | 120.44202 | 35963 ft | 456 kts | 283° |
| 2026-04-24 12:41 | 54.68205 | 120.33564 | 35964 ft | 456 kts | 283° |
| 2026-04-24 12:41 | 54.69752 | 120.22943 | 35965 ft | 456 kts | 283° |
| 2026-04-24 12:42 | 54.71292 | 120.12302 | 35963 ft | 456 kts | 283° |
| 2026-04-24 12:42 | 54.72814 | 120.01721 | 35962 ft | 456 kts | 283° |
| 2026-04-24 12:43 | 54.74336 | 119.91070 | 35970 ft | 456 kts | 283° |
| 2026-04-24 12:43 | 54.75849 | 119.80391 | 35966 ft | 456 kts | 283° |
| 2026-04-24 12:44 | 54.77353 | 119.69704 | 35970 ft | 456 kts | 283° |
| 2026-04-24 12:44 | 54.78847 | 119.59023 | 35971 ft | 456 kts | 283° |
| 2026-04-24 12:45 | 54.80331 | 119.48331 | 35969 ft | 456 kts | 283° |
| 2026-04-24 12:45 | 54.81804 | 119.37654 | 35974 ft | 456 kts | 283° |
| 2026-04-24 12:46 | 54.83269 | 119.26957 | 35977 ft | 455 kts | 283° |
| 2026-04-24 12:46 | 54.84725 | 119.16261 | 35971 ft | 455 kts | 283° |
| 2026-04-24 12:47 | 54.86172 | 119.05561 | 35971 ft | 455 kts | 283° |
| 2026-04-24 12:47 | 54.87603 | 118.94918 | 35974 ft | 455 kts | 283° |
| 2026-04-24 12:48 | 54.89031 | 118.84198 | 35970 ft | 455 kts | 283° |
| 2026-04-24 12:48 | 54.90451 | 118.73477 | 35974 ft | 455 kts | 283° |
| 2026-04-24 12:49 | 54.91860 | 118.62753 | 35974 ft | 454 kts | 283° |
| 2026-04-24 12:49 | 54.93258 | 118.52030 | 35974 ft | 454 kts | 283° |
| 2026-04-24 12:50 | 54.94644 | 118.41318 | 35972 ft | 454 kts | 283° |
| 2026-04-24 12:50 | 54.96013 | 118.30664 | 35976 ft | 454 kts | 283° |
| 2026-04-24 12:51 | 54.97382 | 118.19930 | 35969 ft | 453 kts | 283° |
| 2026-04-24 12:51 | 54.98739 | 118.09216 | 35968 ft | 453 kts | 283° |
| 2026-04-24 12:52 | 55.00084 | 117.98516 | 35975 ft | 452 kts | 283° |
| 2026-04-24 12:52 | 55.01419 | 117.87810 | 35984 ft | 451 kts | 284° |
| 2026-04-24 12:53 | 55.02744 | 117.77108 | 35972 ft | 451 kts | 283° |
| 2026-04-24 12:53 | 55.04058 | 117.66422 | 35972 ft | 450 kts | 283° |
| 2026-04-24 12:54 | 55.05359 | 117.55768 | 35971 ft | 449 kts | 283° |
| 2026-04-24 12:54 | 55.06640 | 117.45174 | 35971 ft | 448 kts | 283° |
| 2026-04-24 12:55 | 55.07914 | 117.34536 | 35972 ft | 448 kts | 283° |
| 2026-04-24 12:55 | 55.09189 | 117.23816 | 35976 ft | 447 kts | 283° |
| 2026-04-24 12:56 | 55.10442 | 117.13191 | 35969 ft | 447 kts | 283° |
| 2026-04-24 12:56 | 55.11686 | 117.02556 | 35975 ft | 447 kts | 283° |
| 2026-04-24 12:57 | 55.12922 | 116.91917 | 35970 ft | 446 kts | 283° |
| 2026-04-24 12:57 | 55.14144 | 116.81308 | 35972 ft | 445 kts | 283° |
| 2026-04-24 12:58 | 55.15356 | 116.70705 | 35970 ft | 444 kts | 283° |
| 2026-04-24 12:58 | 55.16554 | 116.60133 | 35974 ft | 443 kts | 284° |
| 2026-04-24 12:59 | 55.17741 | 116.49561 | 35970 ft | 443 kts | 283° |
| 2026-04-24 12:59 | 55.18920 | 116.38984 | 35975 ft | 442 kts | 283° |
| 2026-04-24 13:00 | 55.20085 | 116.28440 | 35971 ft | 442 kts | 283° |
| 2026-04-24 13:00 | 55.21242 | 116.17881 | 35973 ft | 441 kts | 283° |
| 2026-04-24 13:01 | 55.22391 | 116.07321 | 35971 ft | 442 kts | 283° |
| 2026-04-24 13:01 | 55.23532 | 115.96741 | 35976 ft | 441 kts | 284° |
| 2026-04-24 13:02 | 55.24663 | 115.86183 | 35975 ft | 441 kts | 284° |
| 2026-04-24 13:02 | 55.25787 | 115.75610 | 35971 ft | 441 kts | 284° |
| 2026-04-24 13:03 | 55.26901 | 115.65036 | 35968 ft | 440 kts | 284° |
| 2026-04-24 13:03 | 55.28003 | 115.54485 | 35968 ft | 439 kts | 284° |
| 2026-04-24 13:04 | 55.29093 | 115.43974 | 35978 ft | 438 kts | 284° |
| 2026-04-24 13:04 | 55.30171 | 115.33473 | 35976 ft | 436 kts | 284° |
| 2026-04-24 13:05 | 55.31238 | 115.22989 | 35967 ft | 436 kts | 284° |
| 2026-04-24 13:05 | 55.32294 | 115.12538 | 35978 ft | 435 kts | 284° |
| 2026-04-24 13:06 | 55.33340 | 115.02074 | 35978 ft | 434 kts | 284° |
| 2026-04-24 13:06 | 55.34365 | 114.91724 | 35980 ft | 432 kts | 284° |
| 2026-04-24 13:07 | 55.35394 | 114.81242 | 35965 ft | 431 kts | 284° |
| 2026-04-24 13:07 | 55.36402 | 114.70870 | 35969 ft | 430 kts | 284° |
| 2026-04-24 13:08 | 55.37402 | 114.60499 | 35974 ft | 429 kts | 284° |
| 2026-04-24 13:08 | 55.38396 | 114.50091 | 35972 ft | 429 kts | 284° |
| 2026-04-24 13:09 | 55.39853 | 114.34632 | 35972 ft | 428 kts | 283° |
| 2026-04-24 13:09 | 55.40825 | 114.24216 | 35968 ft | 428 kts | 283° |
| 2026-04-24 13:10 | 55.41781 | 114.13881 | 35971 ft | 428 kts | 283° |
| 2026-04-24 13:10 | 55.42725 | 114.03546 | 35977 ft | 428 kts | 283° |
| 2026-04-24 13:11 | 55.43662 | 113.93193 | 35982 ft | 428 kts | 283° |
| 2026-04-24 13:11 | 55.44594 | 113.82798 | 35973 ft | 429 kts | 283° |
| 2026-04-24 13:12 | 55.45518 | 113.72413 | 35966 ft | 429 kts | 283° |
| 2026-04-24 13:12 | 55.46432 | 113.62020 | 35975 ft | 429 kts | 283° |
| 2026-04-24 13:13 | 55.47335 | 113.51637 | 35973 ft | 428 kts | 283° |
| 2026-04-24 13:13 | 55.48229 | 113.41258 | 35963 ft | 427 kts | 283° |
| 2026-04-24 13:14 | 55.49101 | 113.31016 | 35970 ft | 424 kts | 284° |
| 2026-04-24 13:14 | 55.49970 | 113.20730 | 35961 ft | 424 kts | 284° |
| 2026-04-24 13:15 | 55.50688 | 113.12131 | 35973 ft | 421 kts | 284° |
| 2026-04-24 13:15 | 55.51528 | 113.01983 | 35960 ft | 420 kts | 284° |
| 2026-04-24 13:16 | 55.52362 | 112.91786 | 35946 ft | 419 kts | 284° |
| 2026-04-24 13:16 | 55.53186 | 112.81634 | 35958 ft | 416 kts | 284° |
| 2026-04-24 13:17 | 55.54001 | 112.71543 | 35959 ft | 414 kts | 284° |
| 2026-04-24 13:17 | 55.54798 | 112.61473 | 35949 ft | 413 kts | 284° |
| 2026-04-24 13:18 | 55.55585 | 112.51415 | 35956 ft | 413 kts | 284° |
| 2026-04-24 13:18 | 55.56367 | 112.41364 | 35945 ft | 413 kts | 284° |
| 2026-04-24 13:19 | 55.57139 | 112.31311 | 35924 ft | 411 kts | 284° |
| 2026-04-24 13:19 | 55.57892 | 112.21391 | 35933 ft | 410 kts | 284° |
| 2026-04-24 13:20 | 55.58644 | 112.11396 | 35933 ft | 411 kts | 284° |
| 2026-04-24 13:20 | 55.59389 | 112.01352 | 35927 ft | 412 kts | 284° |
| 2026-04-24 13:21 | 55.60132 | 111.91237 | 35931 ft | 411 kts | 284° |
| 2026-04-24 13:21 | 55.60860 | 111.81231 | 35938 ft | 411 kts | 284° |
| 2026-04-24 13:22 | 55.61579 | 111.71207 | 35917 ft | 411 kts | 284° |
| 2026-04-24 13:22 | 55.62286 | 111.61230 | 35901 ft | 408 kts | 284° |
| 2026-04-24 13:23 | 55.62982 | 111.51266 | 35923 ft | 408 kts | 284° |
| 2026-04-24 13:23 | 55.63673 | 111.41301 | 35928 ft | 407 kts | 284° |
| 2026-04-24 13:24 | 55.64354 | 111.31351 | 35938 ft | 407 kts | 284° |
| 2026-04-24 13:24 | 55.65031 | 111.21390 | 35921 ft | 408 kts | 284° |
| 2026-04-24 13:25 | 55.65713 | 111.11266 | 35917 ft | 408 kts | 284° |
| 2026-04-24 13:25 | 55.66374 | 111.01303 | 35934 ft | 406 kts | 284° |
| 2026-04-24 13:26 | 55.67027 | 110.91376 | 35917 ft | 405 kts | 284° |
| 2026-04-24 13:26 | 55.67664 | 110.81509 | 35918 ft | 403 kts | 283° |
| 2026-04-24 13:27 | 55.68285 | 110.71700 | 35944 ft | 397 kts | 284° |
| 2026-04-24 13:27 | 55.68900 | 110.61985 | 35941 ft | 396 kts | 284° |
| 2026-04-24 13:28 | 55.69510 | 110.52297 | 35907 ft | 395 kts | 284° |
| 2026-04-24 13:28 | 55.70098 | 110.42632 | 35940 ft | 393 kts | 283° |
| 2026-04-24 13:29 | 55.70687 | 110.33003 | 35915 ft | 392 kts | 284° |
| 2026-04-24 13:29 | 55.71264 | 110.23425 | 35900 ft | 390 kts | 283° |
| 2026-04-24 13:30 | 55.71829 | 110.13861 | 35930 ft | 391 kts | 283° |
| 2026-04-24 13:30 | 55.72391 | 110.04256 | 35929 ft | 391 kts | 283° |
| 2026-04-24 13:31 | 55.72946 | 109.94640 | 35924 ft | 392 kts | 283° |
| 2026-04-24 13:31 | 55.73493 | 109.84995 | 35927 ft | 393 kts | 283° |
| 2026-04-24 13:32 | 55.74034 | 109.75326 | 35927 ft | 394 kts | 283° |
| 2026-04-24 13:32 | 55.74570 | 109.65633 | 35916 ft | 395 kts | 283° |
| 2026-04-24 13:33 | 55.75099 | 109.55919 | 35914 ft | 395 kts | 283° |
| 2026-04-24 13:33 | 55.75614 | 109.46174 | 35912 ft | 395 kts | 282° |
| 2026-04-24 13:34 | 55.76118 | 109.36463 | 35917 ft | 396 kts | 282° |
| 2026-04-24 13:34 | 55.76618 | 109.26706 | 35924 ft | 397 kts | 282° |
| 2026-04-24 13:35 | 55.77109 | 109.16948 | 35910 ft | 397 kts | 282° |
| 2026-04-24 13:35 | 55.77593 | 109.07190 | 35932 ft | 396 kts | 282° |
| 2026-04-24 13:36 | 55.78068 | 108.97464 | 35928 ft | 395 kts | 282° |
| 2026-04-24 13:36 | 55.78540 | 108.87660 | 35926 ft | 396 kts | 281° |
| 2026-04-24 13:37 | 55.79000 | 108.77916 | 35929 ft | 395 kts | 281° |
| 2026-04-24 13:37 | 55.79452 | 108.68190 | 35926 ft | 395 kts | 281° |
| 2026-04-24 13:38 | 55.79896 | 108.58467 | 35926 ft | 395 kts | 281° |
| 2026-04-24 13:38 | 55.80332 | 108.48740 | 35920 ft | 395 kts | 281° |
| 2026-04-24 13:39 | 55.80762 | 108.38998 | 35920 ft | 396 kts | 281° |
| 2026-04-24 13:39 | 55.81185 | 108.29232 | 35919 ft | 396 kts | 281° |
| 2026-04-24 13:40 | 55.81600 | 108.19434 | 35923 ft | 398 kts | 280° |
| 2026-04-24 13:40 | 55.82009 | 108.09604 | 35916 ft | 399 kts | 280° |
| 2026-04-24 13:41 | 55.82411 | 107.99783 | 35926 ft | 401 kts | 280° |
| 2026-04-24 13:41 | 55.82811 | 107.89825 | 35913 ft | 402 kts | 280° |
| 2026-04-24 13:42 | 55.83199 | 107.79896 | 35918 ft | 402 kts | 280° |
| 2026-04-24 13:42 | 55.83580 | 107.69968 | 35921 ft | 402 kts | 279° |
| 2026-04-24 13:43 | 55.83951 | 107.60100 | 35920 ft | 402 kts | 279° |
| 2026-04-24 13:43 | 55.84316 | 107.50182 | 35914 ft | 401 kts | 279° |
| 2026-04-24 13:44 | 55.84671 | 107.40297 | 35910 ft | 400 kts | 279° |
| 2026-04-24 13:44 | 55.85020 | 107.30437 | 35916 ft | 398 kts | 279° |
| 2026-04-24 13:45 | 55.85358 | 107.20599 | 35916 ft | 397 kts | 279° |
| 2026-04-24 13:45 | 55.85688 | 107.10812 | 35914 ft | 396 kts | 278° |
| 2026-04-24 13:46 | 55.85956 | 107.02683 | 35916 ft | 395 kts | 278° |
| 2026-04-24 13:46 | 55.86270 | 106.92949 | 35917 ft | 393 kts | 278° |
| 2026-04-24 13:47 | 55.86576 | 106.83260 | 35910 ft | 391 kts | 278° |
| 2026-04-24 13:47 | 55.86874 | 106.73591 | 35923 ft | 390 kts | 278° |
| 2026-04-24 13:48 | 55.87163 | 106.63952 | 35917 ft | 390 kts | 277° |
| 2026-04-24 13:48 | 55.87445 | 106.54313 | 35917 ft | 389 kts | 277° |
| 2026-04-24 13:49 | 55.87719 | 106.44689 | 35915 ft | 389 kts | 277° |
| 2026-04-24 13:49 | 55.87986 | 106.35048 | 35906 ft | 390 kts | 277° |
| 2026-04-24 13:50 | 55.88247 | 106.25384 | 35911 ft | 390 kts | 277° |
| 2026-04-24 13:50 | 55.88497 | 106.15786 | 35909 ft | 390 kts | 277° |
| 2026-04-24 13:51 | 55.88740 | 106.06128 | 35912 ft | 391 kts | 277° |
| 2026-04-24 13:51 | 55.88978 | 105.96406 | 35907 ft | 392 kts | 277° |
| 2026-04-24 13:52 | 55.89209 | 105.86718 | 35909 ft | 392 kts | 276° |
| 2026-04-24 13:52 | 55.89432 | 105.77011 | 35909 ft | 392 kts | 276° |
| 2026-04-24 13:53 | 55.89647 | 105.67315 | 35899 ft | 391 kts | 276° |
| 2026-04-24 13:53 | 55.89857 | 105.57628 | 35903 ft | 391 kts | 276° |
| 2026-04-24 13:54 | 55.90056 | 105.47956 | 35893 ft | 390 kts | 276° |
| 2026-04-24 13:54 | 55.90250 | 105.38314 | 35893 ft | 389 kts | 276° |
| 2026-04-24 13:55 | 55.90440 | 105.28665 | 35896 ft | 390 kts | 275° |
| 2026-04-24 13:55 | 55.90623 | 105.19001 | 35901 ft | 390 kts | 275° |
| 2026-04-24 13:56 | 55.90792 | 105.09266 | 35906 ft | 391 kts | 275° |
| 2026-04-24 13:56 | 55.90953 | 104.99569 | 35898 ft | 392 kts | 275° |
| 2026-04-24 13:57 | 55.91106 | 104.89906 | 35892 ft | 392 kts | 274° |
| 2026-04-24 13:57 | 55.91253 | 104.80196 | 35886 ft | 392 kts | 274° |
| 2026-04-24 13:58 | 55.91392 | 104.70489 | 35886 ft | 392 kts | 274° |
| 2026-04-24 13:58 | 55.91525 | 104.60758 | 35893 ft | 392 kts | 273° |
| 2026-04-24 13:59 | 55.91651 | 104.51024 | 35888 ft | 393 kts | 273° |
| 2026-04-24 13:59 | 55.91768 | 104.41280 | 35890 ft | 393 kts | 273° |
| 2026-04-24 14:00 | 55.91879 | 104.31535 | 35892 ft | 393 kts | 273° |
| 2026-04-24 14:00 | 55.91983 | 104.21795 | 35896 ft | 392 kts | 272° |
| 2026-04-24 14:01 | 55.92082 | 104.12060 | 35889 ft | 392 kts | 272° |
| 2026-04-24 14:01 | 55.92171 | 104.02342 | 35883 ft | 392 kts | 272° |
| 2026-04-24 14:02 | 55.92253 | 103.92633 | 35872 ft | 392 kts | 272° |
| 2026-04-24 14:02 | 55.92328 | 103.82902 | 35881 ft | 392 kts | 272° |
| 2026-04-24 14:03 | 55.92394 | 103.73201 | 35868 ft | 391 kts | 272° |
| 2026-04-24 14:03 | 55.92427 | 103.68381 | 36132 ft | 381 kts | 273° |
| 2026-04-24 14:03 | 55.92503 | 103.63788 | 36885 ft | 363 kts | 275° |
| 2026-04-24 14:04 | 55.92588 | 103.59363 | 37352 ft | 356 kts | 273° |
| 2026-04-24 14:04 | 55.92613 | 103.54866 | 37041 ft | 369 kts | 272° |
| 2026-04-24 14:04 | 55.92605 | 103.50240 | 36848 ft | 378 kts | 272° |
| 2026-04-24 14:04 | 55.92595 | 103.45487 | 36625 ft | 388 kts | 272° |
| 2026-04-24 14:05 | 55.92591 | 103.40618 | 36394 ft | 395 kts | 272° |
| 2026-04-24 14:05 | 55.92595 | 103.35712 | 36135 ft | 395 kts | 271° |
| 2026-04-24 14:05 | 55.92602 | 103.30803 | 35927 ft | 393 kts | 271° |
| 2026-04-24 14:05 | 55.92611 | 103.25939 | 35896 ft | 392 kts | 271° |
| 2026-04-24 14:06 | 55.92632 | 103.16212 | 35876 ft | 392 kts | 271° |
| 2026-04-24 14:06 | 55.92648 | 103.06519 | 35870 ft | 394 kts | 271° |
| 2026-04-24 14:07 | 55.92656 | 102.96730 | 35873 ft | 395 kts | 271° |
| 2026-04-24 14:07 | 55.92656 | 102.86921 | 35869 ft | 396 kts | 271° |
| 2026-04-24 14:08 | 55.92648 | 102.77020 | 35872 ft | 397 kts | 270° |
| 2026-04-24 14:08 | 55.92632 | 102.67218 | 35872 ft | 398 kts | 270° |
| 2026-04-24 14:09 | 55.92610 | 102.57349 | 35851 ft | 398 kts | 270° |
| 2026-04-24 14:09 | 55.92581 | 102.47471 | 35863 ft | 398 kts | 270° |
| 2026-04-24 14:10 | 55.92544 | 102.37589 | 35867 ft | 398 kts | 270° |
| 2026-04-24 14:10 | 55.92500 | 102.27708 | 35858 ft | 399 kts | 270° |
| 2026-04-24 14:11 | 55.92449 | 102.17818 | 35866 ft | 399 kts | 269° |
| 2026-04-24 14:12 | 55.92357 | 102.02974 | 35867 ft | 399 kts | 269° |
| 2026-04-24 14:12 | 55.92284 | 101.93146 | 35859 ft | 399 kts | 269° |
| 2026-04-24 14:13 | 55.92204 | 101.83200 | 35863 ft | 398 kts | 269° |
| 2026-04-24 14:13 | 55.92115 | 101.73334 | 35859 ft | 397 kts | 269° |
| 2026-04-24 14:14 | 55.92019 | 101.63490 | 35863 ft | 397 kts | 269° |
| 2026-04-24 14:14 | 55.91863 | 101.48709 | 35862 ft | 397 kts | 269° |
| 2026-04-24 14:15 | 55.91748 | 101.38856 | 35868 ft | 397 kts | 269° |
| 2026-04-24 14:15 | 55.91626 | 101.29032 | 35859 ft | 397 kts | 269° |
| 2026-04-24 14:16 | 55.91496 | 101.19192 | 35860 ft | 397 kts | 269° |
| 2026-04-24 14:17 | 55.91288 | 101.04412 | 35865 ft | 398 kts | 268° |
| 2026-04-24 14:17 | 55.91062 | 100.89609 | 35873 ft | 398 kts | 268° |
| 2026-04-24 14:18 | 55.90917 | 100.79794 | 35866 ft | 399 kts | 269° |
| 2026-04-24 14:18 | 55.90831 | 100.69837 | 35876 ft | 399 kts | 269° |
| 2026-04-24 14:19 | 55.90751 | 100.60006 | 35872 ft | 400 kts | 269° |
| 2026-04-24 14:19 | 55.90658 | 100.50084 | 35857 ft | 400 kts | 268° |
| 2026-04-24 14:20 | 55.90551 | 100.40170 | 35879 ft | 400 kts | 268° |
| 2026-04-24 14:20 | 55.90434 | 100.30245 | 35888 ft | 401 kts | 268° |
| 2026-04-24 14:21 | 55.90310 | 100.20314 | 35880 ft | 401 kts | 268° |
| 2026-04-24 14:21 | 55.90177 | 100.10354 | 35879 ft | 402 kts | 268° |
| 2026-04-24 14:22 | 55.90037 | 100.00403 | 35883 ft | 402 kts | 268° |
| 2026-04-24 14:23 | 55.89811 | 99.85460 | 35887 ft | 402 kts | 268° |
| 2026-04-24 14:23 | 55.89678 | 99.77175 | 35893 ft | 402 kts | 268° |
| 2026-04-24 14:24 | 55.89510 | 99.67199 | 35888 ft | 403 kts | 268° |
| 2026-04-24 14:24 | 55.89335 | 99.57239 | 35895 ft | 402 kts | 268° |
| 2026-04-24 14:25 | 55.89151 | 99.47271 | 35899 ft | 402 kts | 268° |
| 2026-04-24 14:25 | 55.88959 | 99.37303 | 35902 ft | 402 kts | 268° |
| 2026-04-24 14:26 | 55.88760 | 99.27374 | 35907 ft | 401 kts | 268° |
| 2026-04-24 14:26 | 55.88554 | 99.17506 | 35905 ft | 401 kts | 268° |
| 2026-04-24 14:27 | 55.88340 | 99.07584 | 35915 ft | 400 kts | 268° |
| 2026-04-24 14:27 | 55.88118 | 98.97687 | 35918 ft | 400 kts | 268° |
| 2026-04-24 14:28 | 55.87887 | 98.87798 | 35921 ft | 400 kts | 268° |
| 2026-04-24 14:28 | 55.87648 | 98.77885 | 35927 ft | 400 kts | 268° |
| 2026-04-24 14:29 | 55.87401 | 98.67983 | 35926 ft | 400 kts | 268° |
| 2026-04-24 14:29 | 55.87146 | 98.58065 | 35935 ft | 401 kts | 268° |
| 2026-04-24 14:30 | 55.86884 | 98.48157 | 35932 ft | 401 kts | 268° |
| 2026-04-24 14:30 | 55.86613 | 98.38221 | 35940 ft | 402 kts | 268° |
| 2026-04-24 14:31 | 55.86334 | 98.28265 | 35949 ft | 402 kts | 268° |
| 2026-04-24 14:31 | 55.86046 | 98.18321 | 35955 ft | 403 kts | 268° |
| 2026-04-24 14:32 | 55.85751 | 98.08367 | 35952 ft | 403 kts | 268° |
| 2026-04-24 14:32 | 55.85447 | 97.98382 | 35962 ft | 404 kts | 268° |
| 2026-04-24 14:33 | 55.84788 | 97.88463 | 35959 ft | 406 kts | 256° |
| 2026-04-24 14:33 | 55.83074 | 97.78870 | 35966 ft | 407 kts | 254° |
| 2026-04-24 14:34 | 55.81309 | 97.69304 | 35978 ft | 408 kts | 254° |
| 2026-04-24 14:34 | 55.79564 | 97.59770 | 35976 ft | 408 kts | 254° |
| 2026-04-24 14:35 | 55.77813 | 97.50181 | 35983 ft | 408 kts | 254° |
| 2026-04-24 14:35 | 55.76057 | 97.40587 | 35985 ft | 408 kts | 254° |
| 2026-04-24 14:36 | 55.74297 | 97.31010 | 35996 ft | 408 kts | 254° |
| 2026-04-24 14:36 | 55.72529 | 97.21446 | 35996 ft | 407 kts | 254° |
| 2026-04-24 14:37 | 55.70759 | 97.11921 | 35995 ft | 406 kts | 254° |
| 2026-04-24 14:37 | 55.68984 | 97.02418 | 35997 ft | 406 kts | 254° |
| 2026-04-24 14:38 | 55.67206 | 96.92941 | 36012 ft | 404 kts | 254° |
| 2026-04-24 14:38 | 55.65435 | 96.83550 | 36012 ft | 404 kts | 254° |
| 2026-04-24 14:39 | 55.63648 | 96.74123 | 36014 ft | 404 kts | 254° |
| 2026-04-24 14:39 | 55.61842 | 96.64640 | 36021 ft | 404 kts | 254° |
| 2026-04-24 14:40 | 55.60047 | 96.55263 | 36015 ft | 405 kts | 254° |
| 2026-04-24 14:40 | 55.58232 | 96.45827 | 36023 ft | 405 kts | 254° |
| 2026-04-24 14:41 | 55.56410 | 96.36401 | 36030 ft | 406 kts | 254° |
| 2026-04-24 14:41 | 55.54563 | 96.26891 | 36028 ft | 407 kts | 254° |
| 2026-04-24 14:42 | 55.52730 | 96.17494 | 36035 ft | 408 kts | 254° |
| 2026-04-24 14:42 | 55.51211 | 96.07848 | 36033 ft | 404 kts | 267° |
| 2026-04-24 14:43 | 55.51511 | 95.98009 | 36033 ft | 402 kts | 284° |
| 2026-04-24 14:43 | 55.53220 | 95.88684 | 36048 ft | 402 kts | 288° |
| 2026-04-24 14:44 | 55.55041 | 95.79335 | 36042 ft | 403 kts | 288° |
| 2026-04-24 14:44 | 55.56847 | 95.69895 | 36046 ft | 403 kts | 288° |
| 2026-04-24 14:45 | 55.58611 | 95.60504 | 36022 ft | 403 kts | 288° |
| 2026-04-24 14:45 | 55.59497 | 95.55749 | 35533 ft | 409 kts | 288° |
| 2026-04-24 14:45 | 55.60383 | 95.50976 | 34962 ft | 407 kts | 288° |
| 2026-04-24 14:45 | 55.61262 | 95.46233 | 34393 ft | 406 kts | 288° |
| 2026-04-24 14:46 | 55.62140 | 95.41478 | 33755 ft | 406 kts | 288° |
| 2026-04-24 14:46 | 55.63016 | 95.36724 | 33117 ft | 406 kts | 288° |
| 2026-04-24 14:46 | 55.63890 | 95.31976 | 32476 ft | 405 kts | 288° |
| 2026-04-24 14:46 | 55.64760 | 95.27230 | 31827 ft | 404 kts | 288° |
| 2026-04-24 14:47 | 55.65332 | 95.24107 | 31383 ft | 403 kts | 288° |
| 2026-04-24 14:47 | 55.66482 | 95.17810 | 30487 ft | 400 kts | 288° |
| 2026-04-24 14:47 | 55.67333 | 95.13133 | 29842 ft | 397 kts | 288° |
| 2026-04-24 14:47 | 55.68175 | 95.08496 | 29169 ft | 394 kts | 288° |
| 2026-04-24 14:48 | 55.69010 | 95.03885 | 28444 ft | 392 kts | 289° |
| 2026-04-24 14:48 | 55.69842 | 94.99283 | 27679 ft | 391 kts | 289° |
| 2026-04-24 14:48 | 55.70669 | 94.94692 | 26896 ft | 391 kts | 289° |
| 2026-04-24 14:48 | 55.71493 | 94.90109 | 26107 ft | 390 kts | 289° |
| 2026-04-24 14:49 | 55.72314 | 94.85533 | 25421 ft | 387 kts | 289° |
| 2026-04-24 14:49 | 55.73122 | 94.81011 | 24818 ft | 382 kts | 289° |
| 2026-04-24 14:49 | 55.73918 | 94.76551 | 24255 ft | 376 kts | 289° |
| 2026-04-24 14:49 | 55.74699 | 94.72159 | 23686 ft | 371 kts | 289° |
| 2026-04-24 14:50 | 55.75472 | 94.67808 | 23116 ft | 366 kts | 289° |
| 2026-04-24 14:50 | 55.76231 | 94.63528 | 22559 ft | 362 kts | 289° |
| 2026-04-24 14:50 | 55.76980 | 94.59288 | 22007 ft | 357 kts | 289° |
| 2026-04-24 14:50 | 55.77720 | 94.55096 | 21456 ft | 353 kts | 289° |
| 2026-04-24 14:51 | 55.78448 | 94.50956 | 20911 ft | 350 kts | 288° |
| 2026-04-24 14:51 | 55.79160 | 94.46904 | 20384 ft | 346 kts | 288° |
| 2026-04-24 14:51 | 55.79872 | 94.42842 | 19854 ft | 342 kts | 288° |
| 2026-04-24 14:51 | 55.80577 | 94.38819 | 19317 ft | 340 kts | 288° |
| 2026-04-24 14:52 | 55.81275 | 94.34811 | 18802 ft | 338 kts | 288° |
| 2026-04-24 14:52 | 55.81968 | 94.30836 | 18284 ft | 337 kts | 288° |
| 2026-04-24 14:52 | 55.82692 | 94.26816 | 18041 ft | 347 kts | 289° |
| 2026-04-24 14:52 | 55.83446 | 94.22702 | 17497 ft | 348 kts | 289° |
| 2026-04-24 14:53 | 55.84190 | 94.18643 | 16938 ft | 344 kts | 289° |
| 2026-04-24 14:53 | 55.84925 | 94.14622 | 16393 ft | 340 kts | 289° |
| 2026-04-24 14:53 | 55.85651 | 94.10641 | 15856 ft | 336 kts | 289° |
| 2026-04-24 14:53 | 55.86368 | 94.06688 | 15301 ft | 334 kts | 289° |
| 2026-04-24 14:54 | 55.87075 | 94.02776 | 14765 ft | 330 kts | 288° |
| 2026-04-24 14:54 | 55.87776 | 93.98890 | 14226 ft | 328 kts | 289° |
| 2026-04-24 14:54 | 55.88469 | 93.95039 | 13703 ft | 325 kts | 289° |
| 2026-04-24 14:54 | 55.89157 | 93.91219 | 13173 ft | 323 kts | 288° |
| 2026-04-24 14:55 | 55.89619 | 93.88645 | 12823 ft | 321 kts | 288° |
| 2026-04-24 14:55 | 55.90513 | 93.83652 | 12140 ft | 318 kts | 289° |
| 2026-04-24 14:55 | 55.91209 | 93.79898 | 11429 ft | 322 kts | 290° |
| 2026-04-24 14:55 | 55.91965 | 93.76179 | 11152 ft | 313 kts | 291° |
| 2026-04-24 14:56 | 55.92709 | 93.72597 | 10929 ft | 302 kts | 291° |
| 2026-04-24 14:56 | 55.93422 | 93.69160 | 10812 ft | 289 kts | 291° |
| 2026-04-24 14:56 | 55.94101 | 93.65867 | 10693 ft | 278 kts | 291° |
| 2026-04-24 14:56 | 55.94752 | 93.62690 | 10584 ft | 267 kts | 291° |
| 2026-04-24 14:57 | 55.95377 | 93.59625 | 10474 ft | 258 kts | 291° |
| 2026-04-24 14:57 | 55.95979 | 93.56669 | 10370 ft | 248 kts | 291° |
| 2026-04-24 14:57 | 55.96555 | 93.53829 | 10270 ft | 239 kts | 291° |
| 2026-04-24 14:57 | 55.97109 | 93.51095 | 10170 ft | 230 kts | 291° |
| 2026-04-24 14:58 | 55.97641 | 93.48465 | 10082 ft | 220 kts | 291° |
| 2026-04-24 14:58 | 55.98159 | 93.45900 | 9861 ft | 221 kts | 291° |
| 2026-04-24 14:58 | 55.98682 | 93.43307 | 9645 ft | 225 kts | 291° |
| 2026-04-24 14:58 | 55.99220 | 93.40635 | 9393 ft | 231 kts | 291° |
| 2026-04-24 14:59 | 55.99769 | 93.37907 | 9129 ft | 234 kts | 291° |
| 2026-04-24 14:59 | 56.00318 | 93.35172 | 8859 ft | 234 kts | 291° |
| 2026-04-24 14:59 | 56.00866 | 93.32437 | 8544 ft | 234 kts | 291° |
| 2026-04-24 14:59 | 56.01413 | 93.29712 | 8274 ft | 233 kts | 291° |
| 2026-04-24 15:00 | 56.01782 | 93.27867 | 8074 ft | 233 kts | 291° |
| 2026-04-24 15:00 | 56.02441 | 93.24177 | 7669 ft | 234 kts | 286° |
| 2026-04-24 15:00 | 56.02693 | 93.22304 | 7484 ft | 233 kts | 285° |
| 2026-04-24 15:00 | 56.03172 | 93.18561 | 7108 ft | 232 kts | 285° |
| 2026-04-24 15:01 | 56.03415 | 93.16669 | 6930 ft | 232 kts | 285° |
| 2026-04-24 15:01 | 56.03773 | 93.13872 | 6673 ft | 229 kts | 285° |
| 2026-04-24 15:01 | 56.04130 | 93.11108 | 6421 ft | 227 kts | 285° |
| 2026-04-24 15:01 | 56.04488 | 93.08383 | 6190 ft | 224 kts | 285° |
| 2026-04-24 15:02 | 56.04843 | 93.05680 | 5929 ft | 222 kts | 284° |
| 2026-04-24 15:02 | 56.05193 | 93.03013 | 5672 ft | 220 kts | 284° |
| 2026-04-24 15:02 | 56.05540 | 93.00353 | 5411 ft | 219 kts | 284° |
| 2026-04-24 15:02 | 56.05884 | 92.97714 | 5199 ft | 215 kts | 284° |
| 2026-04-24 15:03 | 56.06234 | 92.95201 | 5127 ft | 201 kts | 289° |
| 2026-04-24 15:03 | 56.06748 | 92.92962 | 5027 ft | 188 kts | 294° |
| 2026-04-24 15:03 | 56.07262 | 92.90905 | 4938 ft | 175 kts | 294° |
| 2026-04-24 15:03 | 56.07737 | 92.88991 | 4850 ft | 161 kts | 293° |
| 2026-04-24 15:04 | 56.08176 | 92.87203 | 4560 ft | 157 kts | 293° |
| 2026-04-24 15:04 | 56.08605 | 92.85467 | 4392 ft | 150 kts | 292° |
| 2026-04-24 15:04 | 56.09022 | 92.83763 | 4345 ft | 150 kts | 292° |
| 2026-04-24 15:04 | 56.09428 | 92.82136 | 4244 ft | 138 kts | 295° |
| 2026-04-24 15:05 | 56.09844 | 92.80632 | 4239 ft | 134 kts | 293° |
| 2026-04-24 15:05 | 56.10243 | 92.79084 | 4112 ft | 138 kts | 292° |
| 2026-04-24 15:05 | 56.10626 | 92.77520 | 3926 ft | 135 kts | 291° |
| 2026-04-24 15:05 | 56.10995 | 92.75977 | 3777 ft | 136 kts | 291° |
| 2026-04-24 15:06 | 56.11366 | 92.74408 | 3579 ft | 136 kts | 291° |
| 2026-04-24 15:06 | 56.11734 | 92.72855 | 3401 ft | 135 kts | 290° |
| 2026-04-24 15:06 | 56.12101 | 92.71293 | 3224 ft | 137 kts | 290° |
| 2026-04-24 15:06 | 56.12472 | 92.69716 | 3040 ft | 138 kts | 290° |
| 2026-04-24 15:07 | 56.12850 | 92.68108 | 2853 ft | 143 kts | 290° |
| 2026-04-24 15:07 | 56.13245 | 92.66431 | 2668 ft | 147 kts | 290° |
| 2026-04-24 15:07 | 56.13645 | 92.64733 | 2465 ft | 148 kts | 290° |
| 2026-04-24 15:07 | 56.14051 | 92.63014 | 2267 ft | 152 kts | 290° |
| 2026-04-24 15:08 | 56.14465 | 92.61259 | 2065 ft | 154 kts | 290° |
| 2026-04-24 15:08 | 56.14882 | 92.59500 | 1862 ft | 152 kts | 290° |
| 2026-04-24 15:08 | 56.15289 | 92.57794 | 1645 ft | 150 kts | 290° |
| 2026-04-24 15:08 | 56.15693 | 92.56116 | 1485 ft | 146 kts | 291° |
| 2026-04-24 15:09 | 56.16088 | 92.54393 | 1276 ft | 153 kts | 290° |
| 2026-04-24 15:09 | 56.16511 | 92.52602 | 1079 ft | 156 kts | 292° |
| 2026-04-24 15:09 | 56.16931 | 92.50832 | 957 ft | 143 kts | 293° |
| 2026-04-24 15:09 | 56.17281 | 92.49391 | 953 ft | 105 kts | 292° |
| 2026-04-24 15:10 | 56.17497 | 92.48483 | 954 ft | 66 kts | 292° |
| 2026-04-24 15:10 | 56.17638 | 92.47888 | 954 ft | 36 kts | 293° |
| 2026-04-24 15:10 | 56.17736 | 92.47777 | 952 ft | 11 kts | 25° |
| 2026-04-24 15:10 | 56.17804 | 92.47831 | 952 ft | 7 kts | 23° |
| 2026-04-24 15:11 | 56.17813 | 92.47838 | 955 ft | 0 kts | 23° |
| 2026-04-24 15:11 | 56.17815 | 92.47839 | 955 ft | 2 kts | 22° |
| 2026-04-24 15:11 | 56.17844 | 92.47887 | 956 ft | 11 kts | 67° |
| 2026-04-24 15:11 | 56.17824 | 92.48030 | 956 ft | 17 kts | 113° |
| 2026-04-24 15:12 | 56.17768 | 92.48254 | 954 ft | 19 kts | 112° |
| 2026-04-24 15:12 | 56.17888 | 92.48501 | 954 ft | 13 kts | 24° |
| 2026-04-24 15:12 | 56.17935 | 92.48534 | 953 ft | 3 kts | 23° |
| 2026-04-24 15:13 | 56.17947 | 92.48543 | 956 ft | 0 kts | 23° |